Airfield :
LOGIN :

Register | Disclaimer

   EN    FR    IT 

 










Legend :    VFR   Marginal VFR   IFR   Intensive IFR   Very Intensive IFR
Visi :
Ceiling :
>= 8 km
>= 3000ft
5 to 8 km
1000 to 3000 ft
1500m to 5 km
500 to 1000 ft
800 to 1500m
200 to 500 ft
< 800m
< 200 ft
Symbols :   Thunderstorms  Fog  Heavy snow  Heavy precipitations  Wind > 20 kt
SIGMETs :     Misc.  Thunderstorms  Icing  Turbulence  Mountain Waves  Volcanic Ashes







- Airport Elevation : 194 ft
- IATA code : LME
- Download approach charts


LFRM - Le Mans

CURRENT METAR :
  • 191700Z AUTO 26003KT 220V310 9999 OVC015 09/05 Q1022 BECMG BKN006

EXPIRED METARs :
  • 191630Z AUTO 30003KT 270V340 9999 OVC016 09/05 Q1022 BECMG BKN006
  • 191600Z AUTO VRB03KT 9999 OVC011 09/06 Q1022 BECMG BKN006
  • 191530Z AUTO 00000KT 9999 OVC013 08/06 Q1022 BECMG BKN006
  • 191500Z AUTO 00000KT 9999 OVC009 08/06 Q1022 NOSIG
  • 191430Z AUTO 00000KT 9999 OVC008 08/06 Q1022 NOSIG

TAF TAF LFRM
Valid from the 19 at 12:00 until the 20 at 12:00 UTC


191100Z 1912/2012 VRB03KT 2000 BR OVC002
BECMG 1912/1914 7000 NSW BKN006
TEMPO 1915/1924 SCT008
BECMG 1922/1924 3000 BR
BECMG 2001/2003 OVC002
PROB30
TEMPO 2003/2009 0500 FG VV///
BECMG 2010/2012 8000 NSW BKN025
No reported NOTAMs for that airfield.



MET'MAP, your aeronautical weather chart ! - Copyright ORBIFLY December 2007 - Disclaimer

ORBIFLY MET'MAP TEAM :

Programming & Development : Alexandra Zaïnal
Concept & Development : Baudouin d'Aumeries
Co-Development & Prog : Marc-Olivier Méhu
Technical & hardware support : Manuel Goepfert

Contact : metmap@orbifly.com




SOURCES & CREDITS :

   NOAA